createdAt,value
2018-03-27T00:00:39.368Z,92.33
2018-03-27T00:01:39.356Z,92.52
2018-03-27T00:02:39.450Z,91.67
2018-03-27T00:03:39.305Z,91.77
2018-03-27T00:04:39.290Z,91.58
2018-03-27T00:05:39.294Z,91.77
2018-03-27T00:06:39.225Z,91.58
2018-03-27T00:07:39.207Z,91.39
2018-03-27T00:08:39.186Z,91.39
2018-03-27T00:09:39.174Z,91.29
2018-03-27T00:10:39.145Z,91.29
2018-03-27T00:11:39.131Z,91.20
2018-03-27T00:12:39.111Z,91.20
2018-03-27T00:13:39.064Z,91.24
2018-03-27T00:14:39.089Z,90.77
2018-03-27T00:15:39.018Z,90.68
2018-03-27T00:16:38.993Z,90.58
2018-03-27T00:17:38.985Z,90.68
2018-03-27T00:18:38.945Z,90.86
2018-03-27T00:19:38.914Z,90.86
2018-03-27T00:20:38.927Z,90.96
2018-03-27T00:21:38.890Z,90.49
2018-03-27T00:22:38.834Z,90.20
2018-03-27T00:23:38.817Z,90.20
2018-03-27T00:24:38.827Z,90.49
2018-03-27T00:25:38.787Z,90.11
2018-03-27T00:26:38.756Z,90.30
2018-03-27T00:27:38.762Z,89.64
2018-03-27T00:28:38.782Z,89.54
2018-03-27T00:29:38.689Z,89.92
2018-03-27T00:30:38.638Z,90.68
2018-03-27T00:31:38.677Z,90.01
2018-03-27T00:32:38.590Z,89.64
2018-03-27T00:33:38.585Z,89.83
2018-03-27T00:34:38.557Z,90.11
2018-03-27T00:35:38.543Z,89.45
2018-03-27T00:36:38.526Z,89.73
2018-03-27T00:37:38.475Z,89.45
2018-03-27T00:38:38.494Z,89.64
2018-03-27T00:39:38.427Z,89.54
2018-03-27T00:40:38.434Z,89.36
2018-03-27T00:41:38.415Z,89.26
2018-03-27T00:42:38.368Z,89.17
2018-03-27T00:43:38.334Z,88.98
2018-03-27T00:44:38.330Z,88.88
2018-03-27T00:45:38.304Z,88.98
2018-03-27T00:46:38.275Z,88.88
2018-03-27T00:47:38.263Z,89.26
2018-03-27T00:48:38.217Z,88.41
2018-03-27T00:49:38.196Z,88.60
2018-03-27T00:50:38.170Z,88.79
2018-03-27T00:51:38.186Z,88.60
2018-03-27T00:52:38.123Z,88.60
2018-03-27T00:53:38.088Z,88.41
2018-03-27T00:54:38.065Z,88.60
2018-03-27T00:55:38.052Z,88.74
2018-03-27T00:56:38.013Z,88.45
2018-03-27T00:57:38.036Z,88.03
2018-03-27T00:58:38.012Z,88.03
2018-03-27T00:59:37.960Z,88.07
2018-03-27T01:00:37.937Z,88.26
2018-03-27T01:01:37.897Z,88.26
2018-03-27T01:02:37.870Z,88.26
2018-03-27T01:03:37.881Z,88.64
2018-03-27T01:04:37.870Z,88.55
2018-03-27T01:05:37.817Z,88.83
2018-03-27T01:06:37.782Z,88.83
2018-03-27T01:07:37.784Z,88.93
2018-03-27T01:08:37.740Z,88.83
2018-03-27T01:09:37.730Z,88.74
2018-03-27T01:10:37.696Z,89.02
2018-03-27T01:11:37.690Z,88.83
2018-03-27T01:12:37.654Z,88.93
2018-03-27T01:13:37.605Z,88.83
2018-03-27T01:14:37.603Z,88.83
2018-03-27T01:15:37.597Z,88.69
2018-03-27T01:16:37.550Z,88.83
2018-03-27T01:17:37.545Z,88.55
2018-03-27T01:18:37.506Z,88.79
2018-03-27T01:19:37.480Z,89.07
2018-03-27T01:20:37.483Z,89.17
2018-03-27T01:21:37.458Z,89.36
2018-03-27T01:22:37.485Z,89.17
2018-03-27T01:23:37.397Z,89.26
2018-03-27T01:24:37.377Z,89.54
2018-03-27T01:25:37.337Z,89.17
2018-03-27T01:26:37.344Z,89.36
2018-03-27T01:27:37.293Z,89.17
2018-03-27T01:28:37.268Z,89.26
2018-03-27T01:29:37.288Z,88.98
2018-03-27T01:30:37.222Z,89.73
2018-03-27T01:31:37.173Z,89.92
2018-03-27T01:32:37.191Z,90.01
2018-03-27T01:33:37.142Z,89.36
2018-03-27T01:34:37.157Z,90.01
2018-03-27T01:35:37.088Z,90.68
2018-03-27T01:36:37.073Z,89.92
2018-03-27T01:37:37.063Z,90.30
2018-03-27T01:38:37.042Z,90.49
2018-03-27T01:39:37.004Z,90.96
2018-03-27T01:40:36.969Z,90.39
2018-03-27T01:41:36.954Z,90.39
2018-03-27T01:42:36.933Z,90.01
2018-03-27T01:43:36.893Z,91.15
2018-03-27T01:44:36.891Z,90.49
2018-03-27T01:45:36.848Z,90.96
2018-03-27T01:46:36.850Z,91.34
2018-03-27T01:47:36.822Z,91.43
2018-03-27T01:48:36.772Z,91.05
2018-03-27T01:49:36.800Z,91.34
2018-03-27T01:50:36.740Z,91.34
2018-03-27T01:51:36.712Z,90.86
2018-03-27T01:52:36.709Z,90.86
2018-03-27T01:53:36.658Z,90.77
2018-03-27T01:54:36.675Z,90.30
2018-03-27T01:55:36.635Z,90.68
2018-03-27T01:56:36.589Z,90.68
2018-03-27T01:57:36.608Z,90.77
2018-03-27T01:58:36.535Z,90.86
2018-03-27T01:59:36.530Z,90.30
2018-03-27T02:00:36.514Z,90.86
2018-03-27T02:01:36.478Z,90.49
2018-03-27T02:02:36.495Z,90.39
2018-03-27T02:03:36.417Z,91.15
2018-03-27T02:04:36.438Z,90.68
2018-03-27T02:05:36.383Z,90.96
2018-03-27T02:06:36.360Z,90.68
2018-03-27T02:07:36.346Z,90.86
2018-03-27T02:08:36.293Z,90.39
2018-03-27T02:09:36.280Z,90.25
2018-03-27T02:10:36.255Z,90.01
2018-03-27T02:11:36.278Z,90.30
2018-03-27T02:12:36.232Z,89.92
2018-03-27T02:13:36.201Z,89.78
2018-03-27T02:14:36.187Z,89.83
2018-03-27T02:15:36.132Z,89.69
2018-03-27T02:16:36.129Z,89.69
2018-03-27T02:17:36.104Z,89.59
2018-03-27T02:18:36.072Z,90.34
2018-03-27T02:19:36.045Z,90.53
2018-03-27T02:20:36.020Z,89.78
2018-03-27T02:21:36.025Z,90.25
2018-03-27T02:22:35.973Z,90.72
2018-03-27T02:23:35.951Z,89.59
2018-03-27T02:24:35.913Z,89.40
2018-03-27T02:25:35.893Z,90.06
2018-03-27T02:26:35.869Z,89.78
2018-03-27T02:27:35.856Z,89.78
2018-03-27T02:28:35.827Z,89.87
2018-03-27T02:29:35.826Z,89.78
2018-03-27T02:30:35.787Z,89.78
2018-03-27T02:31:35.744Z,89.50
2018-03-27T02:32:35.760Z,89.59
2018-03-27T02:33:35.765Z,89.12
2018-03-27T02:34:35.698Z,89.21
2018-03-27T02:35:35.714Z,89.21
2018-03-27T02:36:35.660Z,88.64
2018-03-27T02:37:35.624Z,88.64
2018-03-27T02:38:35.591Z,88.74
2018-03-27T02:39:35.595Z,88.74
2018-03-27T02:40:35.552Z,89.02
2018-03-27T02:41:35.552Z,88.64
2018-03-27T02:42:35.495Z,88.55
2018-03-27T02:43:35.494Z,88.36
2018-03-27T02:44:35.462Z,88.74
2018-03-27T02:45:35.430Z,88.83
2018-03-27T02:46:35.399Z,89.02
2018-03-27T02:47:35.379Z,88.74
2018-03-27T02:48:35.368Z,88.93
2018-03-27T02:49:35.348Z,88.83
2018-03-27T02:50:35.338Z,88.83
2018-03-27T02:51:35.271Z,89.02
2018-03-27T02:52:35.266Z,88.74
2018-03-27T02:53:35.254Z,89.12
2018-03-27T02:54:35.257Z,88.83
2018-03-27T02:55:35.289Z,88.45
2018-03-27T02:56:35.154Z,88.64
2018-03-27T02:57:35.158Z,88.83
2018-03-27T02:58:35.123Z,88.36
2018-03-27T02:59:35.089Z,88.83
2018-03-27T03:00:35.096Z,89.21
2018-03-27T03:01:35.036Z,88.93
2018-03-27T03:02:35.026Z,88.83
2018-03-27T03:03:35.009Z,89.40
2018-03-27T03:04:34.985Z,88.64
2018-03-27T03:05:34.943Z,89.12
2018-03-27T03:06:34.919Z,89.21
2018-03-27T03:07:34.910Z,88.93
2018-03-27T03:08:34.926Z,88.83
2018-03-27T03:09:34.868Z,88.55
2018-03-27T03:10:34.845Z,88.55
2018-03-27T03:11:34.803Z,88.45
2018-03-27T03:12:34.793Z,88.83
2018-03-27T03:13:34.784Z,89.12
2018-03-27T03:14:34.769Z,88.93
2018-03-27T03:15:34.714Z,89.21
2018-03-27T03:16:34.683Z,89.59
2018-03-27T03:17:34.670Z,89.59
2018-03-27T03:18:34.633Z,89.12
2018-03-27T03:19:34.621Z,89.59
2018-03-27T03:20:34.605Z,89.87
2018-03-27T03:21:34.593Z,90.06
2018-03-27T03:22:34.556Z,90.16
2018-03-27T03:23:34.561Z,90.53
2018-03-27T03:24:34.509Z,90.25
2018-03-27T03:25:34.473Z,89.78
2018-03-27T03:26:34.476Z,89.78
2018-03-27T03:27:34.428Z,89.59
2018-03-27T03:28:34.445Z,89.69
2018-03-27T03:29:34.391Z,89.69
2018-03-27T03:30:34.357Z,90.25
2018-03-27T03:31:34.356Z,90.01
2018-03-27T03:32:34.313Z,90.20
2018-03-27T03:33:34.299Z,90.58
2018-03-27T03:34:34.290Z,90.77
2018-03-27T03:35:34.239Z,90.67
2018-03-27T03:36:34.218Z,90.58
2018-03-27T03:37:34.208Z,90.30
2018-03-27T03:38:34.205Z,90.01
2018-03-27T03:39:34.152Z,89.69
2018-03-27T03:40:34.157Z,90.16
2018-03-27T03:41:34.093Z,90.44
2018-03-27T03:42:34.111Z,89.78
2018-03-27T03:43:34.051Z,90.53
2018-03-27T03:44:34.090Z,90.06
2018-03-27T03:45:34.012Z,90.34
2018-03-27T03:46:34.024Z,90.63
2018-03-27T03:47:33.978Z,91.10
2018-03-27T03:48:33.954Z,90.82
2018-03-27T03:49:33.930Z,90.44
2018-03-27T03:50:33.881Z,91.10
2018-03-27T03:51:33.893Z,91.29
2018-03-27T03:52:33.877Z,91.29
2018-03-27T03:53:33.813Z,91.48
2018-03-27T03:54:33.834Z,91.77
2018-03-27T03:55:33.816Z,91.86
2018-03-27T03:56:33.797Z,92.52
2018-03-27T03:57:33.755Z,92.14
2018-03-27T03:58:33.704Z,92.33
2018-03-27T03:59:33.711Z,92.52
2018-03-27T04:00:33.660Z,92.80
2018-03-27T04:01:33.650Z,92.90
2018-03-27T04:02:33.607Z,92.80
2018-03-27T04:03:33.598Z,92.90
2018-03-27T04:04:33.579Z,92.99
2018-03-27T04:05:33.557Z,92.99
2018-03-27T04:06:33.535Z,92.80
2018-03-27T04:07:33.494Z,92.90
2018-03-27T04:08:33.482Z,92.61
2018-03-27T04:09:33.445Z,93.28
2018-03-27T04:10:33.409Z,93.09
2018-03-27T04:11:33.397Z,93.56
2018-03-27T04:12:33.378Z,93.75
2018-03-27T04:13:33.344Z,93.75
2018-03-27T04:14:33.349Z,93.75
2018-03-27T04:15:33.294Z,93.56
2018-03-27T04:16:33.276Z,93.66
2018-03-27T04:17:33.303Z,93.28
2018-03-27T04:18:33.236Z,93.85
2018-03-27T04:19:33.204Z,93.37
2018-03-27T04:20:33.189Z,93.75
2018-03-27T04:21:33.156Z,93.47
2018-03-27T04:22:33.160Z,93.75
2018-03-27T04:23:33.138Z,93.85
2018-03-27T04:24:33.103Z,93.37
2018-03-27T04:25:33.090Z,93.47
2018-03-27T04:26:33.046Z,93.85
2018-03-27T04:27:33.032Z,93.56
2018-03-27T04:28:33.018Z,93.94
2018-03-27T04:29:32.964Z,93.85
2018-03-27T04:30:32.944Z,93.66
2018-03-27T04:31:32.931Z,93.56
2018-03-27T04:32:32.885Z,93.56
2018-03-27T04:33:32.900Z,93.37
2018-03-27T04:34:32.862Z,93.66
2018-03-27T04:35:32.830Z,93.56
2018-03-27T04:36:32.804Z,93.56
2018-03-27T04:37:32.775Z,93.56
2018-03-27T04:38:32.764Z,93.47
2018-03-27T04:39:32.736Z,93.75
2018-03-27T04:40:32.702Z,93.66
2018-03-27T04:41:32.678Z,93.66
2018-03-27T04:42:32.671Z,93.37
2018-03-27T04:43:32.648Z,93.75
2018-03-27T04:44:32.618Z,93.75
2018-03-27T04:45:32.598Z,93.56
2018-03-27T04:46:32.578Z,93.56
2018-03-27T04:47:32.544Z,93.47
2018-03-27T04:48:32.525Z,93.47
2018-03-27T04:49:32.533Z,93.75
2018-03-27T04:50:32.506Z,93.18
2018-03-27T04:51:32.468Z,93.56
2018-03-27T04:52:32.470Z,93.75
2018-03-27T04:53:32.398Z,93.66
2018-03-27T04:54:32.398Z,93.80
2018-03-27T04:55:32.388Z,93.56
2018-03-27T04:56:32.333Z,93.66
2018-03-27T04:57:32.315Z,93.51
2018-03-27T04:58:32.293Z,93.56
2018-03-27T04:59:32.255Z,93.37
2018-03-27T05:00:32.236Z,94.04
2018-03-27T05:01:32.252Z,93.94
2018-03-27T05:02:32.193Z,94.13
2018-03-27T05:03:32.219Z,94.23
2018-03-27T05:04:32.160Z,95.07
2018-03-27T05:05:32.170Z,94.32
2018-03-27T05:06:32.091Z,94.13
2018-03-27T05:07:32.086Z,94.60
2018-03-27T05:08:32.075Z,94.32
2018-03-27T05:09:32.035Z,94.32
2018-03-27T05:10:32.034Z,94.32
2018-03-27T05:11:32.000Z,94.13
2018-03-27T05:12:31.955Z,94.70
2018-03-27T05:13:31.975Z,94.98
2018-03-27T05:14:31.922Z,94.04
2018-03-27T05:15:31.892Z,94.70
2018-03-27T05:16:31.858Z,94.89
2018-03-27T05:17:31.855Z,94.60
2018-03-27T05:18:31.842Z,94.13
2018-03-27T05:19:31.801Z,95.07
2018-03-27T05:20:31.765Z,94.70
2018-03-27T05:21:31.748Z,94.70
2018-03-27T05:22:31.776Z,94.32
2018-03-27T05:23:31.712Z,94.70
2018-03-27T05:24:31.665Z,94.60
2018-03-27T05:25:31.647Z,93.94
2018-03-27T05:26:31.680Z,94.60
2018-03-27T05:27:31.628Z,94.42
2018-03-27T05:28:31.576Z,94.23
2018-03-27T05:29:31.562Z,94.13
2018-03-27T05:30:31.561Z,94.70
2018-03-27T05:31:31.518Z,94.51
2018-03-27T05:32:31.476Z,94.60
2018-03-27T05:33:31.464Z,94.23
2018-03-27T05:34:31.429Z,94.70
2018-03-27T05:35:31.438Z,94.13
2018-03-27T05:36:31.385Z,94.42
2018-03-27T05:37:31.373Z,94.51
2018-03-27T05:38:31.351Z,94.42
2018-03-27T05:39:31.326Z,94.42
2018-03-27T05:40:31.306Z,94.23
2018-03-27T05:41:31.271Z,94.60
2018-03-27T05:42:31.258Z,94.98
2018-03-27T05:43:31.227Z,94.23
2018-03-27T05:44:31.206Z,94.56
2018-03-27T05:45:31.189Z,94.60
2018-03-27T05:46:31.164Z,94.56
2018-03-27T05:47:31.133Z,94.74
2018-03-27T05:48:31.121Z,94.74
2018-03-27T05:49:31.097Z,94.60
2018-03-27T05:50:31.069Z,94.51
2018-03-27T05:51:31.042Z,94.74
2018-03-27T05:52:31.018Z,94.18
2018-03-27T05:53:30.982Z,94.08
2018-03-27T05:54:30.968Z,93.80
2018-03-27T05:55:30.957Z,94.18
2018-03-27T05:56:30.957Z,93.99
2018-03-27T05:57:30.976Z,93.99
2018-03-27T05:58:30.892Z,93.80
2018-03-27T05:59:30.862Z,93.99
2018-03-27T06:00:30.849Z,94.08
2018-03-27T06:01:30.828Z,93.99
2018-03-27T06:02:30.799Z,93.80
2018-03-27T06:03:30.757Z,94.46
2018-03-27T06:04:30.758Z,93.99
2018-03-27T06:05:30.727Z,93.99
2018-03-27T06:06:30.712Z,93.80
2018-03-27T06:07:30.739Z,94.08
2018-03-27T06:08:30.646Z,94.18
2018-03-27T06:09:30.638Z,93.61
2018-03-27T06:10:30.634Z,93.32
2018-03-27T06:11:30.579Z,93.51
2018-03-27T06:12:30.538Z,93.42
2018-03-27T06:13:30.517Z,93.04
2018-03-27T06:14:30.500Z,93.51
2018-03-27T06:15:30.481Z,93.32
2018-03-27T06:16:30.449Z,93.23
2018-03-27T06:17:30.454Z,92.66
2018-03-27T06:18:30.434Z,92.66
2018-03-27T06:19:30.408Z,93.13
2018-03-27T06:20:30.365Z,93.13
2018-03-27T06:21:30.351Z,92.85
2018-03-27T06:22:30.307Z,92.29
2018-03-27T06:23:30.282Z,92.33
2018-03-27T06:24:30.318Z,92.61
2018-03-27T06:25:30.255Z,92.14
2018-03-27T06:26:30.239Z,91.57
2018-03-27T06:27:30.229Z,91.10
2018-03-27T06:28:30.172Z,90.63
2018-03-27T06:29:30.188Z,90.81
2018-03-27T06:30:30.143Z,90.81
2018-03-27T06:31:30.104Z,91.00
2018-03-27T06:32:30.200Z,90.81
2018-03-27T06:33:30.082Z,90.44
2018-03-27T06:34:30.044Z,90.06
2018-03-27T06:35:30.020Z,89.87
2018-03-27T06:36:30.012Z,90.06
2018-03-27T06:37:30.024Z,89.77
2018-03-27T06:38:31.751Z,89.49
2018-03-27T06:39:29.945Z,89.01
2018-03-27T06:40:29.902Z,88.54
2018-03-27T06:41:29.876Z,88.73
2018-03-27T06:42:29.850Z,88.73
2018-03-27T06:43:29.861Z,89.11
2018-03-27T06:44:29.808Z,88.64
2018-03-27T06:45:29.780Z,89.20
2018-03-27T06:46:29.774Z,88.45
2018-03-27T06:47:29.767Z,88.45
2018-03-27T06:48:29.759Z,88.21
2018-03-27T06:49:29.692Z,88.21
2018-03-27T06:50:29.710Z,88.40
2018-03-27T06:51:29.646Z,87.83
2018-03-27T06:52:29.642Z,87.83
2018-03-27T06:53:29.617Z,86.88
2018-03-27T06:54:29.592Z,85.97
2018-03-27T06:55:29.566Z,85.31
2018-03-27T06:56:29.558Z,84.46
2018-03-27T06:57:29.527Z,84.08
2018-03-27T06:58:30.210Z,83.17
2018-03-27T06:59:29.513Z,82.79
2018-03-27T07:00:29.439Z,82.89
2018-03-27T07:01:29.424Z,82.04
2018-03-27T07:02:29.393Z,81.27
2018-03-27T07:03:29.405Z,81.47
2018-03-27T07:04:29.367Z,81.14
2018-03-27T07:05:29.402Z,80.95
2018-03-27T07:06:29.304Z,80.95
2018-03-27T07:07:29.328Z,80.99
2018-03-27T07:08:29.278Z,81.09
2018-03-27T07:09:30.207Z,79.80
2018-03-27T07:10:29.274Z,79.04
2018-03-27T07:11:29.202Z,77.66
2018-03-27T07:12:29.230Z,76.14
2018-03-27T07:13:29.236Z,76.04
2018-03-27T07:14:29.139Z,75.51
2018-03-27T07:15:29.167Z,74.47
2018-03-27T07:16:29.090Z,74.94
2018-03-27T07:17:29.101Z,74.37
2018-03-27T07:18:29.102Z,73.42
2018-03-27T07:19:29.054Z,73.61
2018-03-27T07:20:29.025Z,73.61
2018-03-27T07:21:29.017Z,72.95
2018-03-27T07:22:28.991Z,72.38
2018-03-27T07:23:28.930Z,71.14
2018-03-27T07:24:28.926Z,70.04
2018-03-27T07:25:28.916Z,69.41
2018-03-27T07:26:28.907Z,68.01
2018-03-27T07:27:28.884Z,66.66
2018-03-27T07:28:28.842Z,64.50
2018-03-27T07:29:28.849Z,63.10
2018-03-27T07:30:28.840Z,60.55
2018-03-27T07:31:28.765Z,58.29
2018-03-27T07:32:28.738Z,57.24
2018-03-27T07:33:28.750Z,56.38
2018-03-27T07:34:28.721Z,56.29
2018-03-27T07:35:28.681Z,55.82
2018-03-27T07:36:28.666Z,56.01
2018-03-27T07:37:28.657Z,55.43
2018-03-27T07:38:28.636Z,54.44
2018-03-27T07:39:28.647Z,52.65
2018-03-27T07:40:28.601Z,51.70
2018-03-27T07:41:28.587Z,51.34
2018-03-27T07:42:28.538Z,50.31
2018-03-27T07:43:28.552Z,49.55
2018-03-27T07:44:28.521Z,48.97
2018-03-27T07:45:28.499Z,48.59
2018-03-27T07:46:28.468Z,48.33
2018-03-27T07:47:28.485Z,45.36
2018-03-27T07:48:28.450Z,45.36
2018-03-27T07:49:28.437Z,44.29
2018-03-27T07:50:28.381Z,44.12
2018-03-27T07:51:28.366Z,44.02
2018-03-27T07:52:37.616Z,43.37
2018-03-27T07:54:21.624Z,41.77
2018-03-27T07:55:21.612Z,41.09
2018-03-27T07:56:21.263Z,41.09
2018-03-27T07:57:21.263Z,40.92
2018-03-27T07:58:21.224Z,39.89
2018-03-27T07:59:21.199Z,38.56
2018-03-27T08:00:21.209Z,37.24
2018-03-27T08:01:30.667Z,36.18
2018-03-27T08:03:14.594Z,35.53
2018-03-27T08:04:14.451Z,35.36
2018-03-27T08:05:14.418Z,35.16
2018-03-27T08:06:14.378Z,35.38
2018-03-27T08:07:14.402Z,34.99
2018-03-27T08:08:14.337Z,33.75
2018-03-27T08:09:14.368Z,32.71
2018-03-27T08:10:14.303Z,32.56
2018-03-27T08:11:14.427Z,31.99
2018-03-27T08:12:14.288Z,29.49
2018-03-27T08:13:14.360Z,28.92
2018-03-27T08:14:14.273Z,27.96
2018-03-27T08:15:14.276Z,27.19
2018-03-27T08:16:14.288Z,27.29
2018-03-27T08:17:13.901Z,26.04
2018-03-27T08:18:13.893Z,26.04
2018-03-27T08:19:13.918Z,25.97
2018-03-27T08:20:14.225Z,25.87
2018-03-27T08:21:14.182Z,25.98
2018-03-27T08:22:14.204Z,25.21
2018-03-27T08:23:14.751Z,24.23
2018-03-27T08:24:14.078Z,25.01
2018-03-27T08:25:14.097Z,25.70
2018-03-27T08:26:14.687Z,24.04
2018-03-27T08:27:13.822Z,24.71
2018-03-27T08:28:13.726Z,25.07
2018-03-27T08:29:13.728Z,26.10
2018-03-27T08:30:13.691Z,27.26
2018-03-27T08:31:13.824Z,26.95
2018-03-27T08:32:13.719Z,26.67
2018-03-27T08:33:13.653Z,27.34
2018-03-27T08:34:13.660Z,27.23
2018-03-27T08:35:13.622Z,27.80
2018-03-27T08:38:06.947Z,31.88
2018-03-27T08:39:06.919Z,32.55
2018-03-27T08:40:06.766Z,31.88
2018-03-27T08:41:06.514Z,31.29
2018-03-27T08:42:06.863Z,31.87
2018-03-27T08:43:06.831Z,32.81
2018-03-27T08:44:06.835Z,33.48
2018-03-27T08:45:06.736Z,32.81
2018-03-27T08:46:06.550Z,32.70
2018-03-27T08:47:06.450Z,32.79
2018-03-27T08:48:07.064Z,33.65
2018-03-27T08:49:06.828Z,33.50
2018-03-27T08:50:06.733Z,32.57
2018-03-27T08:51:06.379Z,31.95
2018-03-27T08:52:06.793Z,30.15
2018-03-27T08:53:06.704Z,27.08
2018-03-27T08:54:06.636Z,26.12
2018-03-27T08:55:06.631Z,25.57
2018-03-27T08:56:06.552Z,23.75
2018-03-27T08:57:06.617Z,23.39
2018-03-27T08:58:06.570Z,22.63
2018-03-27T08:59:06.263Z,21.77
2018-03-27T09:00:06.258Z,20.71
2018-03-27T09:01:06.236Z,19.74
2018-03-27T09:02:06.237Z,20.34
2018-03-27T09:03:06.239Z,20.44
2018-03-27T09:04:06.209Z,20.55
2018-03-27T09:05:06.199Z,20.27
2018-03-27T09:06:06.183Z,19.20
2018-03-27T09:07:06.348Z,18.62
2018-03-27T09:08:06.176Z,17.84
2018-03-27T09:09:06.214Z,17.16
2018-03-27T09:10:06.148Z,18.21
2018-03-27T09:11:06.171Z,19.00
2018-03-27T09:12:06.144Z,18.43
2018-03-27T09:13:06.124Z,18.15
2018-03-27T09:14:06.128Z,18.26
2018-03-27T09:15:06.129Z,16.61
2018-03-27T09:16:07.047Z,17.20
2018-03-27T09:17:06.069Z,16.88
2018-03-27T09:18:06.065Z,16.86
2018-03-27T09:19:06.059Z,17.99
2018-03-27T09:20:06.067Z,19.70
2018-03-27T09:21:06.028Z,20.75
2018-03-27T09:22:06.029Z,22.67
2018-03-27T09:23:06.028Z,22.88
2018-03-27T09:24:06.021Z,21.24
2018-03-27T09:25:05.987Z,20.74
2018-03-27T09:26:05.988Z,22.34
2018-03-27T09:27:05.970Z,23.58
2018-03-27T09:28:05.964Z,25.13
2018-03-27T09:29:05.951Z,24.49
2018-03-27T09:30:05.937Z,23.92
2018-03-27T09:31:05.966Z,23.14
2018-03-27T09:32:05.925Z,23.14
2018-03-27T09:33:05.940Z,23.16
2018-03-27T09:34:06.357Z,22.33
2018-03-27T09:35:05.897Z,21.39
2018-03-27T09:36:05.892Z,19.38
2018-03-27T09:37:05.924Z,18.24
2018-03-27T09:38:05.888Z,17.78
2018-03-27T09:39:05.904Z,16.73
2018-03-27T09:40:05.850Z,15.82
2018-03-27T09:41:05.826Z,17.24
2018-03-27T09:42:05.822Z,18.75
2018-03-27T09:43:05.822Z,20.83
2018-03-27T09:44:05.808Z,20.90
2018-03-27T09:45:05.799Z,22.39
2018-03-27T09:46:05.797Z,23.42
2018-03-27T09:47:05.794Z,24.55
2018-03-27T09:48:05.882Z,25.96
2018-03-27T09:49:05.760Z,27.27
2018-03-27T09:50:05.758Z,28.79
2018-03-27T09:51:05.723Z,29.63
2018-03-27T09:52:05.738Z,30.77
2018-03-27T09:53:05.750Z,32.01
2018-03-27T09:54:05.706Z,33.60
2018-03-27T09:55:05.682Z,34.65
2018-03-27T09:56:05.672Z,35.49
2018-03-27T09:57:05.631Z,36.44
2018-03-27T09:58:05.623Z,37.02
2018-03-27T09:59:05.617Z,37.49
2018-03-27T10:00:05.596Z,37.12
2018-03-27T10:01:05.625Z,37.12
2018-03-27T10:02:05.576Z,36.46
2018-03-27T10:03:05.613Z,35.37
2018-03-27T10:04:05.663Z,33.33
2018-03-27T10:05:05.631Z,29.16
2018-03-27T10:06:05.813Z,25.95
2018-03-27T10:07:05.475Z,23.88
2018-03-27T10:08:05.500Z,22.19
2018-03-27T10:09:05.489Z,20.39
2018-03-27T10:10:05.430Z,19.17
2018-03-27T10:11:05.412Z,16.47
2018-03-27T10:12:05.463Z,15.61
2018-03-27T10:13:05.515Z,13.87
2018-03-27T10:14:05.371Z,13.59
2018-03-27T10:15:05.384Z,13.11
2018-03-27T10:16:05.354Z,12.45
2018-03-27T10:17:05.341Z,11.58
2018-03-27T10:18:05.338Z,11.39
2018-03-27T10:19:05.352Z,11.10
2018-03-27T10:20:05.331Z,11.51
2018-03-27T10:21:05.332Z,8.19
2018-03-27T10:22:05.320Z,8.18
2018-03-27T10:23:05.284Z,7.40
2018-03-27T10:24:05.287Z,7.79
2018-03-27T10:25:05.282Z,7.99
2018-03-27T10:26:05.257Z,8.77
2018-03-27T10:27:05.288Z,8.58
2018-03-27T10:28:05.254Z,9.96
2018-03-27T10:29:05.244Z,9.47
2018-03-27T10:30:05.250Z,9.08
2018-03-27T10:31:05.237Z,7.13
2018-03-27T10:32:05.226Z,6.53
2018-03-27T10:33:05.231Z,7.40
2018-03-27T10:34:05.284Z,7.70
2018-03-27T10:35:05.206Z,8.67
2018-03-27T10:36:05.213Z,9.26
2018-03-27T10:37:05.200Z,6.92
2018-03-27T10:38:05.198Z,6.72
2018-03-27T10:39:05.267Z,7.11
2018-03-27T10:40:05.189Z,6.73
2018-03-27T10:41:05.188Z,6.92
2018-03-27T10:42:05.171Z,8.26
2018-03-27T10:43:05.205Z,9.79
2018-03-27T10:44:05.199Z,11.03
2018-03-27T10:45:05.171Z,11.51
2018-03-27T10:46:05.169Z,11.43
2018-03-27T10:47:05.226Z,11.25
2018-03-27T10:48:05.166Z,9.71
2018-03-27T10:49:05.145Z,8.45
2018-03-27T10:50:05.179Z,7.78
2018-03-27T10:51:05.128Z,7.89
2018-03-27T10:52:05.124Z,6.62
2018-03-27T10:53:05.100Z,6.13
2018-03-27T10:54:05.091Z,5.45
2018-03-27T10:55:05.086Z,5.55
2018-03-27T10:56:05.111Z,5.83
2018-03-27T10:57:05.099Z,6.42
2018-03-27T10:58:05.110Z,6.52
2018-03-27T10:59:05.068Z,5.85
2018-03-27T11:00:05.068Z,6.24
2018-03-27T11:01:05.064Z,6.74
2018-03-27T11:02:05.051Z,5.28
2018-03-27T11:03:05.048Z,5.77
2018-03-27T11:04:05.053Z,5.57
2018-03-27T11:05:05.046Z,4.30
2018-03-27T11:06:05.031Z,5.07
2018-03-27T11:07:05.036Z,5.85
2018-03-27T11:08:05.027Z,6.24
2018-03-27T11:09:05.012Z,6.15
2018-03-27T11:10:05.070Z,5.95
2018-03-27T11:11:05.020Z,5.17
2018-03-27T11:12:05.043Z,6.63
2018-03-27T11:13:05.010Z,5.85
2018-03-27T11:14:05.016Z,5.46
2018-03-27T11:15:05.019Z,6.14
2018-03-27T11:16:05.049Z,4.87
2018-03-27T11:17:04.997Z,4.77
2018-03-27T11:18:05.000Z,6.13
2018-03-27T11:19:05.010Z,6.62
2018-03-27T11:20:04.983Z,5.75
2018-03-27T11:21:05.020Z,6.14
2018-03-27T11:22:04.992Z,6.82
2018-03-27T11:23:04.960Z,5.76
2018-03-27T11:24:04.990Z,4.88
2018-03-27T11:25:04.997Z,5.56
2018-03-27T11:26:04.956Z,5.95
2018-03-27T11:27:04.954Z,6.54
2018-03-27T11:28:04.984Z,7.32
2018-03-27T11:29:04.962Z,5.76
2018-03-27T11:30:04.952Z,6.25
2018-03-27T11:31:04.950Z,5.76
2018-03-27T11:32:04.945Z,6.15
2018-03-27T11:33:04.944Z,5.96
2018-03-27T11:34:04.920Z,6.35
2018-03-27T11:35:04.925Z,5.27
2018-03-27T11:36:04.961Z,5.95
2018-03-27T11:37:05.016Z,5.74
2018-03-27T11:38:04.934Z,6.99
2018-03-27T11:39:04.943Z,9.31
2018-03-27T11:40:04.903Z,9.99
2018-03-27T11:41:04.922Z,10.00
2018-03-27T11:42:04.928Z,9.42
2018-03-27T11:43:04.958Z,8.84
2018-03-27T11:44:04.929Z,8.07
2018-03-27T11:45:04.892Z,9.44
2018-03-27T11:46:04.914Z,7.70
2018-03-27T11:47:04.876Z,6.34
2018-03-27T11:48:04.888Z,7.79
2018-03-27T11:49:04.887Z,8.19
2018-03-27T11:50:04.900Z,8.50
2018-03-27T11:51:04.883Z,7.91
2018-03-27T11:52:04.865Z,5.47
2018-03-27T11:53:04.839Z,6.25
2018-03-27T11:54:04.895Z,6.74
2018-03-27T11:55:04.848Z,6.15
2018-03-27T11:56:04.831Z,5.76
2018-03-27T11:57:04.839Z,6.54
2018-03-27T11:58:04.821Z,6.35
2018-03-27T11:59:04.830Z,6.74
2018-03-27T12:00:04.836Z,7.32
2018-03-27T12:01:04.840Z,5.86
2018-03-27T12:02:04.814Z,5.95
2018-03-27T12:03:04.822Z,7.12
2018-03-27T12:04:04.806Z,6.33
2018-03-27T12:05:04.806Z,6.71
2018-03-27T12:06:04.798Z,8.06
2018-03-27T12:07:04.814Z,10.49
2018-03-27T12:08:04.796Z,10.78
2018-03-27T12:09:04.780Z,9.32
2018-03-27T12:10:04.793Z,10.57
2018-03-27T12:11:04.796Z,11.71
2018-03-27T12:12:04.781Z,12.48
2018-03-27T12:13:04.784Z,11.21
2018-03-27T12:14:04.781Z,12.15
2018-03-27T12:15:04.757Z,13.29
2018-03-27T12:16:04.764Z,15.70
2018-03-27T12:17:04.793Z,15.88
2018-03-27T12:18:04.736Z,18.07
2018-03-27T12:19:04.734Z,18.26
2018-03-27T12:20:04.715Z,19.30
2018-03-27T12:21:04.718Z,19.20
2018-03-27T12:22:04.702Z,19.00
2018-03-27T12:23:04.694Z,19.01
2018-03-27T12:24:04.687Z,19.33
2018-03-27T12:25:04.675Z,16.95
2018-03-27T12:26:04.688Z,16.86
2018-03-27T12:27:04.652Z,16.57
2018-03-27T12:28:04.646Z,16.77
2018-03-27T12:29:04.645Z,15.91
2018-03-27T12:30:04.628Z,15.42
2018-03-27T12:31:04.621Z,17.33
2018-03-27T12:32:04.601Z,18.29
2018-03-27T12:33:04.603Z,18.76
2018-03-27T12:34:04.600Z,19.43
2018-03-27T12:35:04.575Z,19.23
2018-03-27T12:36:04.565Z,20.76
2018-03-27T12:37:04.547Z,21.33
2018-03-27T12:38:04.543Z,22.00
2018-03-27T12:39:04.535Z,21.70
2018-03-27T12:40:04.521Z,22.75
2018-03-27T12:41:04.513Z,22.75
2018-03-27T12:42:04.504Z,23.32
2018-03-27T12:43:04.493Z,23.03
2018-03-27T12:44:04.469Z,22.64
2018-03-27T12:45:04.474Z,22.83
2018-03-27T12:46:05.116Z,23.13
2018-03-27T12:47:04.436Z,22.83
2018-03-27T12:48:04.429Z,23.79
2018-03-27T12:49:04.424Z,23.50
2018-03-27T12:50:04.404Z,23.12
2018-03-27T12:51:04.391Z,23.60
2018-03-27T12:52:04.403Z,23.58
2018-03-27T12:53:04.402Z,24.91
2018-03-27T12:54:04.346Z,25.52
2018-03-27T12:55:04.339Z,25.34
2018-03-27T12:56:04.324Z,23.82
2018-03-27T12:57:05.119Z,21.91
2018-03-27T12:58:04.294Z,20.11
2018-03-27T12:59:04.352Z,20.70